HAHO2: Gaines Creek on Hwy 1 SW of Hartshorne

                                SHEF ID:       HAHO2     Gaines Creek on Hwy 1 SW of Hart
STATION TYPE:

PRECIP STAGE RIV-FLOW VOLTAGE BAT-LOAD
in ft cfs volt volt
Ccp-Rev Ccp-Rev Ccp-Rev Ccp-Rev Ccp-Rev
(America/Chicago)
04/25 00:00 0.00 8.60 72 12.21 11.90
04/25 01:00 0.00 9.57 246 12.19 11.90
04/25 02:00 0.00 9.89 315 12.19 11.90
04/25 03:00 0.00 9.91 319 12.19 11.88
04/25 04:00 0.00 9.85 308 12.19 11.89
04/25 05:00 0.00 9.78 295 12.19 11.88
04/25 06:00 0.00 9.75 290 12.19 11.88
04/25 07:00 0.00 9.73 286 12.19 11.88
04/25 08:00 0.00 9.72 285 12.18 11.88
04/25 09:00 0.00 9.70 280 12.25 11.94
04/25 10:00 0.00 9.69 277 12.50 12.19
04/25 11:00 0.00 9.66 269 12.31 12.01
04/25 12:00 0.00 9.63 261 12.28 11.98
04/25 13:00 0.00 9.58 249 12.27 11.96
04/25 14:00 0.00 9.54 239 12.25 11.94
04/25 15:00 0.00 9.49 227 12.24 11.94
04/25 16:00 0.00 9.45 218 12.23 11.91
04/25 17:00 0.00 9.42 211 12.23 11.91
04/25 18:00 0.00 9.38 203 12.23 11.91
04/25 19:00 0.00 9.35 197 12.21 11.91
04/25 20:00 0.00 9.34 195 12.21 11.91
04/25 21:00 0.00 9.31 189 12.21 11.91
04/25 22:00 0.00 9.28 183 12.21 11.91
04/25 23:00 0.00 9.25 177 12.21 11.91
Data processed at Sun 26Apr2026 04:01 GMT

NOTICE: If you are parsing this page

Please convert to using our Data API. Starting early 2026 we will be migrating to: https://water.usace.army.mil with modern pages rendered in JavaScript. When this migration completes you will no longer be able to scrape this page! CWMSDataAPI (CDA)

Timeseries IDs (TSIDs)

TSIDs used from left to right in the data table
HART.Precip-Inc.Total.1Hour.1Hour.Ccp-Rev
HART.Stage.Inst.1Hour.0.Ccp-Rev
HART.Flow.Inst.1Hour.0.Ccp-Rev
HART.Volt-Battery.Inst.1Hour.0.Ccp-Rev
HART.Volt-Battery Load.Inst.1Hour.0.Ccp-Rev

                            

All information presented herein is the property of the government of the United States of America and may be revised or deleted at any time without prior notice. Dissemination of this information without the expressed written consent of the Public Affairs Office, Tulsa District U.S. Army Corps of Engineers is strictly prohibited. These data are gathered electronically and, as presented, have NOT undergone any form of quality control. These data are NOT guaranteed to be valid or correct.